sensor_id;sensor_type;location;lat;lon;timestamp;pressure;altitude;pressure_sealevel;temperature
67966;BMP280;54749;47.850;9.002;2023-04-09T00:01:05;96492.34;;;3.86
67966;BMP280;54749;47.850;9.002;2023-04-09T00:03:34;96501.91;;;3.77
67966;BMP280;54749;47.850;9.002;2023-04-09T00:06:02;96500.22;;;3.58
67966;BMP280;54749;47.850;9.002;2023-04-09T00:08:30;96486.72;;;3.43
67966;BMP280;54749;47.850;9.002;2023-04-09T00:10:57;96483.25;;;3.26
67966;BMP280;54749;47.850;9.002;2023-04-09T00:13:25;96481.38;;;3.11
67966;BMP280;54749;47.850;9.002;2023-04-09T00:16:06;96488.41;;;3.02
67966;BMP280;54749;47.850;9.002;2023-04-09T00:18:33;96482.66;;;3.00
67966;BMP280;54749;47.850;9.002;2023-04-09T00:21:00;96485.66;;;3.08
67966;BMP280;54749;47.850;9.002;2023-04-09T00:23:28;96499.72;;;3.10
67966;BMP280;54749;47.850;9.002;2023-04-09T00:25:55;96497.19;;;3.12
67966;BMP280;54749;47.850;9.002;2023-04-09T00:28:22;96484.63;;;3.13
67966;BMP280;54749;47.850;9.002;2023-04-09T00:30:49;96482.94;;;3.14
67966;BMP280;54749;47.850;9.002;2023-04-09T00:33:16;96484.75;;;3.10
67966;BMP280;54749;47.850;9.002;2023-04-09T00:35:43;96489.03;;;3.07
67966;BMP280;54749;47.850;9.002;2023-04-09T00:38:10;96501.56;;;3.05
67966;BMP280;54749;47.850;9.002;2023-04-09T00:40:37;96481.13;;;2.96
67966;BMP280;54749;47.850;9.002;2023-04-09T00:43:05;96486.34;;;2.90
67966;BMP280;54749;47.850;9.002;2023-04-09T00:45:32;96484.13;;;2.84
67966;BMP280;54749;47.850;9.002;2023-04-09T00:48:00;96480.97;;;2.79
67966;BMP280;54749;47.850;9.002;2023-04-09T00:50:27;96481.19;;;2.74
67966;BMP280;54749;47.850;9.002;2023-04-09T00:52:55;96477.31;;;2.67
67966;BMP280;54749;47.850;9.002;2023-04-09T00:55:22;96475.91;;;2.60
67966;BMP280;54749;47.850;9.002;2023-04-09T00:57:49;96474.50;;;2.53
67966;BMP280;54749;47.850;9.002;2023-04-09T01:00:16;96486.34;;;2.48
67966;BMP280;54749;47.850;9.002;2023-04-09T01:02:44;96489.84;;;2.43
67966;BMP280;54749;47.850;9.002;2023-04-09T01:05:12;96470.06;;;2.39
67966;BMP280;54749;47.850;9.002;2023-04-09T01:10:23;96488.63;;;2.32
67966;BMP280;54749;47.850;9.002;2023-04-09T01:13:06;96490.47;;;2.27
67966;BMP280;54749;47.850;9.002;2023-04-09T01:15:38;96483.03;;;2.26
67966;BMP280;54749;47.850;9.002;2023-04-09T01:18:21;96491.78;;;2.14
67966;BMP280;54749;47.850;9.002;2023-04-09T01:20:57;96496.09;;;2.09
67966;BMP280;54749;47.850;9.002;2023-04-09T01:23:36;96486.56;;;1.98
67966;BMP280;54749;47.850;9.002;2023-04-09T01:26:25;96490.22;;;1.88
67966;BMP280;54749;47.850;9.002;2023-04-09T01:28:56;96486.38;;;1.80
67966;BMP280;54749;47.850;9.002;2023-04-09T01:31:30;96490.75;;;1.74
67966;BMP280;54749;47.850;9.002;2023-04-09T01:33:58;96482.69;;;1.67
67966;BMP280;54749;47.850;9.002;2023-04-09T01:36:27;96490.16;;;1.67
67966;BMP280;54749;47.850;9.002;2023-04-09T01:39:00;96481.84;;;1.67
67966;BMP280;54749;47.850;9.002;2023-04-09T01:41:30;96491.19;;;1.60
67966;BMP280;54749;47.850;9.002;2023-04-09T01:44:00;96496.31;;;1.56
67966;BMP280;54749;47.850;9.002;2023-04-09T01:46:28;96478.03;;;1.57
67966;BMP280;54749;47.850;9.002;2023-04-09T01:48:56;96471.41;;;1.56
67966;BMP280;54749;47.850;9.002;2023-04-09T01:51:23;96474.13;;;1.50
67966;BMP280;54749;47.850;9.002;2023-04-09T01:53:51;96472.75;;;1.42
67966;BMP280;54749;47.850;9.002;2023-04-09T01:56:18;96476.81;;;1.44
67966;BMP280;54749;47.850;9.002;2023-04-09T01:58:45;96480.00;;;1.48
67966;BMP280;54749;47.850;9.002;2023-04-09T02:01:17;96475.00;;;1.49
67966;BMP280;54749;47.850;9.002;2023-04-09T02:03:55;96469.91;;;1.52
67966;BMP280;54749;47.850;9.002;2023-04-09T02:06:43;96480.09;;;1.46
67966;BMP280;54749;47.850;9.002;2023-04-09T02:09:15;96467.72;;;1.43
67966;BMP280;54749;47.850;9.002;2023-04-09T02:11:46;96479.97;;;1.49
67966;BMP280;54749;47.850;9.002;2023-04-09T02:14:15;96473.44;;;1.47
67966;BMP280;54749;47.850;9.002;2023-04-09T02:16:42;96472.53;;;1.48
67966;BMP280;54749;47.850;9.002;2023-04-09T02:19:10;96474.81;;;1.55
67966;BMP280;54749;47.850;9.002;2023-04-09T02:21:37;96469.81;;;1.55
67966;BMP280;54749;47.850;9.002;2023-04-09T02:24:04;96481.34;;;1.57
67966;BMP280;54749;47.850;9.002;2023-04-09T02:26:31;96469.41;;;1.67
67966;BMP280;54749;47.850;9.002;2023-04-09T02:28:59;96471.03;;;1.68
67966;BMP280;54749;47.850;9.002;2023-04-09T02:31:25;96475.16;;;1.69
67966;BMP280;54749;47.850;9.002;2023-04-09T02:33:53;96465.03;;;1.73
67966;BMP280;54749;47.850;9.002;2023-04-09T02:36:20;96457.13;;;1.85
67966;BMP280;54749;47.850;9.002;2023-04-09T02:38:47;96463.69;;;1.87
67966;BMP280;54749;47.850;9.002;2023-04-09T02:41:15;96457.88;;;1.87
67966;BMP280;54749;47.850;9.002;2023-04-09T02:43:42;96468.78;;;1.84
67966;BMP280;54749;47.850;9.002;2023-04-09T02:46:09;96450.53;;;1.84
67966;BMP280;54749;47.850;9.002;2023-04-09T02:48:37;96448.06;;;1.82
67966;BMP280;54749;47.850;9.002;2023-04-09T02:51:04;96463.03;;;1.82
67966;BMP280;54749;47.850;9.002;2023-04-09T02:53:32;96461.41;;;1.81
67966;BMP280;54749;47.850;9.002;2023-04-09T02:55:59;96453.72;;;1.87
67966;BMP280;54749;47.850;9.002;2023-04-09T02:58:26;96439.47;;;1.91
67966;BMP280;54749;47.850;9.002;2023-04-09T03:00:53;96452.91;;;1.87
67966;BMP280;54749;47.850;9.002;2023-04-09T03:03:20;96436.22;;;1.89
67966;BMP280;54749;47.850;9.002;2023-04-09T03:05:48;96450.47;;;1.85
67966;BMP280;54749;47.850;9.002;2023-04-09T03:08:15;96448.06;;;1.82
67966;BMP280;54749;47.850;9.002;2023-04-09T03:10:42;96446.41;;;1.83
67966;BMP280;54749;47.850;9.002;2023-04-09T03:13:09;96448.84;;;1.84
67966;BMP280;54749;47.850;9.002;2023-04-09T03:15:36;96447.22;;;1.83
67966;BMP280;54749;47.850;9.002;2023-04-09T03:18:03;96443.97;;;1.81
67966;BMP280;54749;47.850;9.002;2023-04-09T03:20:30;96437.47;;;1.77
67966;BMP280;54749;47.850;9.002;2023-04-09T03:22:58;96425.94;;;1.75
67966;BMP280;54749;47.850;9.002;2023-04-09T03:25:33;96434.50;;;1.68
67966;BMP280;54749;47.850;9.002;2023-04-09T03:28:08;96438.09;;;1.60
67966;BMP280;54749;47.850;9.002;2023-04-09T03:30:40;96431.81;;;1.50
67966;BMP280;54749;47.850;9.002;2023-04-09T03:33:08;96417.06;;;1.44
67966;BMP280;54749;47.850;9.002;2023-04-09T03:35:45;96435.47;;;1.40
67966;BMP280;54749;47.850;9.002;2023-04-09T03:38:14;96438.94;;;1.35
67966;BMP280;54749;47.850;9.002;2023-04-09T03:40:41;96446.53;;;1.32
67966;BMP280;54749;47.850;9.002;2023-04-09T03:43:09;96430.97;;;1.26
67966;BMP280;54749;47.850;9.002;2023-04-09T03:45:38;96448.53;;;1.22
67966;BMP280;54749;47.850;9.002;2023-04-09T03:48:17;96443.66;;;1.19
67966;BMP280;54749;47.850;9.002;2023-04-09T03:50:44;96459.47;;;1.18
67966;BMP280;54749;47.850;9.002;2023-04-09T03:53:15;96447.75;;;1.21
67966;BMP280;54749;47.850;9.002;2023-04-09T03:55:44;96439.22;;;1.28
67966;BMP280;54749;47.850;9.002;2023-04-09T03:58:18;96437.28;;;1.36
67966;BMP280;54749;47.850;9.002;2023-04-09T04:00:46;96428.75;;;1.42
67966;BMP280;54749;47.850;9.002;2023-04-09T04:03:35;96430.94;;;1.51
67966;BMP280;54749;47.850;9.002;2023-04-09T04:06:08;96450.59;;;1.58
67966;BMP280;54749;47.850;9.002;2023-04-09T04:09:02;96445.19;;;1.70
67966;BMP280;54749;47.850;9.002;2023-04-09T04:11:45;96384.13;;;1.83
67966;BMP280;54749;47.850;9.002;2023-04-09T04:14:13;96393.81;;;1.90
67966;BMP280;54749;47.850;9.002;2023-04-09T04:16:44;96386.88;;;1.98
67966;BMP280;54749;47.850;9.002;2023-04-09T04:19:16;96379.16;;;2.04
67966;BMP280;54749;47.850;9.002;2023-04-09T04:21:46;96394.72;;;2.10
67966;BMP280;54749;47.850;9.002;2023-04-09T04:24:14;96376.34;;;2.12
67966;BMP280;54749;47.850;9.002;2023-04-09T04:26:41;96384.59;;;2.14
67966;BMP280;54749;47.850;9.002;2023-04-09T04:29:11;96381.09;;;2.18
67966;BMP280;54749;47.850;9.002;2023-04-09T04:32:07;96379.13;;;2.26
67966;BMP280;54749;47.850;9.002;2023-04-09T04:34:36;96379.81;;;2.29
67966;BMP280;54749;47.850;9.002;2023-04-09T04:37:17;96386.34;;;2.33
67966;BMP280;54749;47.850;9.002;2023-04-09T04:39:45;96382.97;;;2.34
67966;BMP280;54749;47.850;9.002;2023-04-09T04:42:15;96390.53;;;2.33
67966;BMP280;54749;47.850;9.002;2023-04-09T04:44:43;96368.81;;;2.35
67966;BMP280;54749;47.850;9.002;2023-04-09T04:47:23;96375.56;;;2.33
67966;BMP280;54749;47.850;9.002;2023-04-09T04:49:51;96386.44;;;2.30
67966;BMP280;54749;47.850;9.002;2023-04-09T04:52:20;96382.97;;;2.34
67966;BMP280;54749;47.850;9.002;2023-04-09T04:54:50;96397.72;;;2.40
67966;BMP280;54749;47.850;9.002;2023-04-09T04:57:21;96396.56;;;2.48
67966;BMP280;54749;47.850;9.002;2023-04-09T04:59:48;96392.06;;;2.56
67966;BMP280;54749;47.850;9.002;2023-04-09T05:02:16;96407.50;;;2.65
67966;BMP280;54749;47.850;9.002;2023-04-09T05:04:56;96402.13;;;2.76
67966;BMP280;54749;47.850;9.002;2023-04-09T05:07:32;96410.78;;;2.87
67966;BMP280;54749;47.850;9.002;2023-04-09T05:10:00;96408.75;;;2.96
67966;BMP280;54749;47.850;9.002;2023-04-09T05:12:33;96364.31;;;3.04
67966;BMP280;54749;47.850;9.002;2023-04-09T05:15:01;96399.84;;;3.10
67966;BMP280;54749;47.850;9.002;2023-04-09T05:17:29;96424.47;;;3.19
67966;BMP280;54749;47.850;9.002;2023-04-09T05:19:56;96525.72;;;3.26
67966;BMP280;54749;47.850;9.002;2023-04-09T05:22:35;96544.44;;;3.37
67966;BMP280;54749;47.850;9.002;2023-04-09T05:25:03;96587.28;;;3.48
67966;BMP280;54749;47.850;9.002;2023-04-09T05:27:35;96591.00;;;3.59
67966;BMP280;54749;47.850;9.002;2023-04-09T05:30:03;96588.69;;;3.74
67966;BMP280;54749;47.850;9.002;2023-04-09T05:32:31;96591.66;;;3.83
67966;BMP280;54749;47.850;9.002;2023-04-09T05:34:59;96594.41;;;3.97
67966;BMP280;54749;47.850;9.002;2023-04-09T05:37:28;96596.03;;;4.17
67966;BMP280;54749;47.850;9.002;2023-04-09T05:39:55;96583.81;;;4.49
67966;BMP280;54749;47.850;9.002;2023-04-09T05:42:23;96586.28;;;4.68
67966;BMP280;54749;47.850;9.002;2023-04-09T05:44:58;96587.50;;;4.78
67966;BMP280;54749;47.850;9.002;2023-04-09T05:47:25;96576.94;;;4.89
67966;BMP280;54749;47.850;9.002;2023-04-09T05:50:13;96581.03;;;5.10
67966;BMP280;54749;47.850;9.002;2023-04-09T05:52:40;96582.09;;;5.23
67966;BMP280;54749;47.850;9.002;2023-04-09T05:55:09;96583.56;;;5.44
67966;BMP280;54749;47.850;9.002;2023-04-09T05:57:42;96575.25;;;5.78
67966;BMP280;54749;47.850;9.002;2023-04-09T06:00:12;96570.66;;;5.86
67966;BMP280;54749;47.850;9.002;2023-04-09T06:02:46;96577.66;;;6.29
67966;BMP280;54749;47.850;9.002;2023-04-09T06:05:14;96570.09;;;6.93
67966;BMP280;54749;47.850;9.002;2023-04-09T06:07:41;96565.25;;;7.50
67966;BMP280;54749;47.850;9.002;2023-04-09T06:10:08;96568.56;;;7.66
67966;BMP280;54749;47.850;9.002;2023-04-09T06:12:35;96562.09;;;7.90
67966;BMP280;54749;47.850;9.002;2023-04-09T06:15:04;96556.41;;;8.85
67966;BMP280;54749;47.850;9.002;2023-04-09T06:17:31;96548.38;;;9.71
67966;BMP280;54749;47.850;9.002;2023-04-09T06:19:59;96539.59;;;11.00
67966;BMP280;54749;47.850;9.002;2023-04-09T06:22:26;96542.88;;;11.94
67966;BMP280;54749;47.850;9.002;2023-04-09T06:24:53;96531.78;;;12.84
67966;BMP280;54749;47.850;9.002;2023-04-09T06:27:20;96526.72;;;13.05
67966;BMP280;54749;47.850;9.002;2023-04-09T06:29:48;96524.97;;;13.68
67966;BMP280;54749;47.850;9.002;2023-04-09T06:32:15;96514.81;;;14.30
67966;BMP280;54749;47.850;9.002;2023-04-09T06:34:42;96523.41;;;14.78
67966;BMP280;54749;47.850;9.002;2023-04-09T06:37:09;96511.94;;;15.78
67966;BMP280;54749;47.850;9.002;2023-04-09T06:39:37;96514.59;;;16.69
67966;BMP280;54749;47.850;9.002;2023-04-09T06:42:08;96504.81;;;17.10
67966;BMP280;54749;47.850;9.002;2023-04-09T06:44:48;96506.34;;;16.75
67966;BMP280;54749;47.850;9.002;2023-04-09T06:47:15;96515.84;;;16.38
67966;BMP280;54749;47.850;9.002;2023-04-09T06:49:42;96531.66;;;15.58
67966;BMP280;54749;47.850;9.002;2023-04-09T06:52:09;96519.72;;;15.77
67966;BMP280;54749;47.850;9.002;2023-04-09T06:54:36;96529.31;;;15.46
67966;BMP280;54749;47.850;9.002;2023-04-09T06:57:05;96536.19;;;15.16
67966;BMP280;54749;47.850;9.002;2023-04-09T06:59:33;96536.47;;;15.13
67966;BMP280;54749;47.850;9.002;2023-04-09T07:01:59;96539.19;;;15.30
67966;BMP280;54749;47.850;9.002;2023-04-09T07:04:27;96526.34;;;16.35
67966;BMP280;54749;47.850;9.002;2023-04-09T07:06:54;96529.63;;;16.63
67966;BMP280;54749;47.850;9.002;2023-04-09T07:09:22;96527.16;;;16.35
67966;BMP280;54749;47.850;9.002;2023-04-09T07:11:49;96514.28;;;17.26
67966;BMP280;54749;47.850;9.002;2023-04-09T07:14:16;96521.34;;;17.06
67966;BMP280;54749;47.850;9.002;2023-04-09T07:16:43;96517.63;;;17.01
67966;BMP280;54749;47.850;9.002;2023-04-09T07:19:12;96508.63;;;17.49
67966;BMP280;54749;47.850;9.002;2023-04-09T07:21:39;96511.34;;;17.48
67966;BMP280;54749;47.850;9.002;2023-04-09T07:24:06;96509.28;;;16.89
67966;BMP280;54749;47.850;9.002;2023-04-09T07:26:33;96525.94;;;15.27
67966;BMP280;54749;47.850;9.002;2023-04-09T07:29:01;96520.84;;;16.30
67966;BMP280;54749;47.850;9.002;2023-04-09T07:31:29;96508.69;;;17.14
67966;BMP280;54749;47.850;9.002;2023-04-09T07:34:00;96528.09;;;16.07
67966;BMP280;54749;47.850;9.002;2023-04-09T07:36:27;96529.88;;;15.49
67966;BMP280;54749;47.850;9.002;2023-04-09T07:38:54;96525.53;;;16.16
67966;BMP280;54749;47.850;9.002;2023-04-09T07:41:21;96520.13;;;17.62
67966;BMP280;54749;47.850;9.002;2023-04-09T07:43:49;96516.66;;;16.48
67966;BMP280;54749;47.850;9.002;2023-04-09T07:46:19;96517.72;;;18.04
67966;BMP280;54749;47.850;9.002;2023-04-09T07:48:47;96523.97;;;17.49
67966;BMP280;54749;47.850;9.002;2023-04-09T07:51:16;96519.94;;;17.20
67966;BMP280;54749;47.850;9.002;2023-04-09T07:53:43;96530.50;;;16.90
67966;BMP280;54749;47.850;9.002;2023-04-09T07:56:10;96512.09;;;17.57
67966;BMP280;54749;47.850;9.002;2023-04-09T07:58:38;96508.13;;;18.82
67966;BMP280;54749;47.850;9.002;2023-04-09T08:01:05;96502.84;;;20.20
67966;BMP280;54749;47.850;9.002;2023-04-09T08:03:32;96493.72;;;21.41
67966;BMP280;54749;47.850;9.002;2023-04-09T08:05:59;96500.44;;;19.95
67966;BMP280;54749;47.850;9.002;2023-04-09T08:08:27;96494.47;;;20.88
67966;BMP280;54749;47.850;9.002;2023-04-09T08:10:54;96488.38;;;21.12
67966;BMP280;54749;47.850;9.002;2023-04-09T08:13:24;96490.75;;;21.59
67966;BMP280;54749;47.850;9.002;2023-04-09T08:15:51;96488.63;;;21.17
67966;BMP280;54749;47.850;9.002;2023-04-09T08:18:19;96499.06;;;21.69
67966;BMP280;54749;47.850;9.002;2023-04-09T08:20:46;96497.22;;;21.85
67966;BMP280;54749;47.850;9.002;2023-04-09T08:23:13;96494.44;;;22.60
67966;BMP280;54749;47.850;9.002;2023-04-09T08:25:40;96504.94;;;23.51
67966;BMP280;54749;47.850;9.002;2023-04-09T08:28:07;96500.94;;;22.70
67966;BMP280;54749;47.850;9.002;2023-04-09T08:30:34;96511.56;;;21.42
67966;BMP280;54749;47.850;9.002;2023-04-09T08:33:02;96522.25;;;20.22
67966;BMP280;54749;47.850;9.002;2023-04-09T08:35:29;96528.56;;;19.31
67966;BMP280;54749;47.850;9.002;2023-04-09T08:37:58;96526.63;;;19.66
67966;BMP280;54749;47.850;9.002;2023-04-09T08:40:25;96516.72;;;19.79
67966;BMP280;54749;47.850;9.002;2023-04-09T08:42:54;96533.44;;;19.50
67966;BMP280;54749;47.850;9.002;2023-04-09T08:45:24;96523.75;;;19.29
67966;BMP280;54749;47.850;9.002;2023-04-09T08:47:52;96518.66;;;21.32
67966;BMP280;54749;47.850;9.002;2023-04-09T08:50:19;96501.66;;;22.20
67966;BMP280;54749;47.850;9.002;2023-04-09T08:52:46;96500.94;;;22.70
67966;BMP280;54749;47.850;9.002;2023-04-09T08:55:14;96498.88;;;22.65
67966;BMP280;54749;47.850;9.002;2023-04-09T08:57:41;96499.75;;;22.58
67966;BMP280;54749;47.850;9.002;2023-04-09T09:00:09;96514.28;;;21.41
67966;BMP280;54749;47.850;9.002;2023-04-09T09:02:36;96525.19;;;20.82
67966;BMP280;54749;47.850;9.002;2023-04-09T09:05:05;96502.22;;;22.88
67966;BMP280;54749;47.850;9.002;2023-04-09T09:07:33;96515.94;;;23.17
67966;BMP280;54749;47.850;9.002;2023-04-09T09:10:00;96518.59;;;21.77
67966;BMP280;54749;47.850;9.002;2023-04-09T09:12:37;96520.09;;;21.42
67966;BMP280;54749;47.850;9.002;2023-04-09T09:15:26;96510.50;;;22.98
67966;BMP280;54749;47.850;9.002;2023-04-09T09:17:58;96517.91;;;21.08
67966;BMP280;54749;47.850;9.002;2023-04-09T09:20:25;96531.78;;;18.76
67966;BMP280;54749;47.850;9.002;2023-04-09T09:22:54;96545.38;;;16.49
67966;BMP280;54749;47.850;9.002;2023-04-09T09:25:22;96542.16;;;15.35
67966;BMP280;54749;47.850;9.002;2023-04-09T09:27:53;96563.44;;;14.96
67966;BMP280;54749;47.850;9.002;2023-04-09T09:30:24;96551.91;;;14.52
67966;BMP280;54749;47.850;9.002;2023-04-09T09:32:54;96552.84;;;14.91
67966;BMP280;54749;47.850;9.002;2023-04-09T09:35:29;96551.03;;;15.11
67966;BMP280;54749;47.850;9.002;2023-04-09T09:38:01;96540.41;;;15.83
67966;BMP280;54749;47.850;9.002;2023-04-09T09:40:29;96534.00;;;17.86
67966;BMP280;54749;47.850;9.002;2023-04-09T09:42:57;96522.97;;;18.61
67966;BMP280;54749;47.850;9.002;2023-04-09T09:45:24;96523.16;;;19.42
67966;BMP280;54749;47.850;9.002;2023-04-09T09:47:52;96516.97;;;20.08
67966;BMP280;54749;47.850;9.002;2023-04-09T09:50:23;96516.19;;;18.94
67966;BMP280;54749;47.850;9.002;2023-04-09T09:53:00;96528.97;;;19.92
67966;BMP280;54749;47.850;9.002;2023-04-09T09:55:32;96520.88;;;19.64
67966;BMP280;54749;47.850;9.002;2023-04-09T09:58:01;96519.19;;;18.82
67966;BMP280;54749;47.850;9.002;2023-04-09T10:00:31;96505.88;;;20.93
67966;BMP280;54749;47.850;9.002;2023-04-09T10:03:06;96511.56;;;20.42
67966;BMP280;54749;47.850;9.002;2023-04-09T10:05:37;96531.88;;;18.50
67966;BMP280;54749;47.850;9.002;2023-04-09T10:08:06;96508.22;;;19.70
67966;BMP280;54749;47.850;9.002;2023-04-09T10:10:34;96514.72;;;19.17
67966;BMP280;54749;47.850;9.002;2023-04-09T10:13:05;96532.78;;;17.02
67966;BMP280;54749;47.850;9.002;2023-04-09T10:15:33;96531.69;;;16.50
67966;BMP280;54749;47.850;9.002;2023-04-09T10:18:00;96531.16;;;16.38
67966;BMP280;54749;47.850;9.002;2023-04-09T10:21:08;96537.94;;;16.83
67966;BMP280;54749;47.850;9.002;2023-04-09T10:23:44;96516.84;;;18.96
67966;BMP280;54749;47.850;9.002;2023-04-09T10:26:13;96530.94;;;18.17
67966;BMP280;54749;47.850;9.002;2023-04-09T10:28:41;96516.16;;;18.28
67966;BMP280;54749;47.850;9.002;2023-04-09T10:31:09;96513.44;;;18.88
67966;BMP280;54749;47.850;9.002;2023-04-09T10:33:37;96510.34;;;19.83
67966;BMP280;54749;47.850;9.002;2023-04-09T10:36:11;96497.91;;;21.41
67966;BMP280;54749;47.850;9.002;2023-04-09T10:38:41;96500.66;;;21.99
67966;BMP280;54749;47.850;9.002;2023-04-09T10:41:29;96489.31;;;21.86
67966;BMP280;54749;47.850;9.002;2023-04-09T10:43:57;96492.38;;;20.99
67966;BMP280;54749;47.850;9.002;2023-04-09T10:46:42;96485.78;;;21.12
67966;BMP280;54749;47.850;9.002;2023-04-09T10:51:52;96466.13;;;22.16
67966;BMP280;54749;47.850;9.002;2023-04-09T10:54:46;96465.78;;;22.77
67966;BMP280;54749;47.850;9.002;2023-04-09T10:57:18;96475.03;;;23.14
67966;BMP280;54749;47.850;9.002;2023-04-09T10:59:48;96446.22;;;24.28
67966;BMP280;54749;47.850;9.002;2023-04-09T11:03:26;96463.88;;;22.99
67966;BMP280;54749;47.850;9.002;2023-04-09T11:05:35;96482.28;;;19.97
67966;BMP280;54749;47.850;9.002;2023-04-09T11:08:06;96477.16;;;19.81
67966;BMP280;54749;47.850;9.002;2023-04-09T11:10:36;96475.06;;;19.36
67966;BMP280;54749;47.850;9.002;2023-04-09T11:13:04;96477.28;;;18.07
67966;BMP280;54749;47.850;9.002;2023-04-09T11:15:34;96493.47;;;17.65
67966;BMP280;54749;47.850;9.002;2023-04-09T11:18:02;96496.41;;;16.18
67966;BMP280;54749;47.850;9.002;2023-04-09T11:20:32;96503.38;;;15.79
67966;BMP280;54749;47.850;9.002;2023-04-09T11:22:59;96502.16;;;15.17
67966;BMP280;54749;47.850;9.002;2023-04-09T11:25:29;96505.69;;;14.27
67966;BMP280;54749;47.850;9.002;2023-04-09T11:27:57;96496.94;;;14.20
67966;BMP280;54749;47.850;9.002;2023-04-09T11:30:24;96496.28;;;14.19
67966;BMP280;54749;47.850;9.002;2023-04-09T11:32:52;96495.44;;;14.38
67966;BMP280;54749;47.850;9.002;2023-04-09T11:35:21;96500.16;;;14.42
67966;BMP280;54749;47.850;9.002;2023-04-09T11:37:48;96493.34;;;15.30
67966;BMP280;54749;47.850;9.002;2023-04-09T11:40:21;96479.22;;;16.02
67966;BMP280;54749;47.850;9.002;2023-04-09T11:42:50;96482.53;;;15.56
67966;BMP280;54749;47.850;9.002;2023-04-09T11:45:25;96489.53;;;15.82
67966;BMP280;54749;47.850;9.002;2023-04-09T11:47:53;96486.16;;;15.44
67966;BMP280;54749;47.850;9.002;2023-04-09T11:50:21;96478.78;;;15.51
67966;BMP280;54749;47.850;9.002;2023-04-09T11:52:48;96484.03;;;15.49
67966;BMP280;54749;47.850;9.002;2023-04-09T11:55:26;96501.81;;;14.72
67966;BMP280;54749;47.850;9.002;2023-04-09T11:57:58;96499.91;;;14.25
67966;BMP280;54749;47.850;9.002;2023-04-09T12:00:31;96491.91;;;13.79
67966;BMP280;54749;47.850;9.002;2023-04-09T12:03:02;96493.94;;;13.96
67966;BMP280;54749;47.850;9.002;2023-04-09T12:05:32;96488.28;;;14.23
67966;BMP280;54749;47.850;9.002;2023-04-09T12:08:01;96491.84;;;14.01
67966;BMP280;54749;47.850;9.002;2023-04-09T12:10:30;96486.84;;;13.79
67966;BMP280;54749;47.850;9.002;2023-04-09T12:13:16;96473.69;;;14.25
67966;BMP280;54749;47.850;9.002;2023-04-09T12:15:43;96485.84;;;14.41
67966;BMP280;54749;47.850;9.002;2023-04-09T12:18:11;96475.97;;;14.48
67966;BMP280;54749;47.850;9.002;2023-04-09T12:20:41;96465.50;;;14.71
67966;BMP280;54749;47.850;9.002;2023-04-09T12:23:11;96480.41;;;15.04
67966;BMP280;54749;47.850;9.002;2023-04-09T12:25:41;96479.50;;;14.85
67966;BMP280;54749;47.850;9.002;2023-04-09T12:28:11;96477.50;;;14.59
67966;BMP280;54749;47.850;9.002;2023-04-09T12:30:39;96474.41;;;14.85
67966;BMP280;54749;47.850;9.002;2023-04-09T12:33:07;96482.41;;;15.01
67966;BMP280;54749;47.850;9.002;2023-04-09T12:35:37;96480.38;;;14.95
67966;BMP280;54749;47.850;9.002;2023-04-09T12:38:04;96496.28;;;14.19
67966;BMP280;54749;47.850;9.002;2023-04-09T12:40:32;96502.13;;;13.99
67966;BMP280;54749;47.850;9.002;2023-04-09T12:42:59;96488.16;;;13.22
67966;BMP280;54749;47.850;9.002;2023-04-09T12:45:26;96483.75;;;13.34
67966;BMP280;54749;47.850;9.002;2023-04-09T12:47:53;96483.72;;;13.45
67966;BMP280;54749;47.850;9.002;2023-04-09T12:50:21;96482.69;;;13.78
67966;BMP280;54749;47.850;9.002;2023-04-09T12:52:48;96477.66;;;13.67
67966;BMP280;54749;47.850;9.002;2023-04-09T12:55:15;96478.06;;;13.83
67966;BMP280;54749;47.850;9.002;2023-04-09T12:57:43;96475.06;;;13.89
67966;BMP280;54749;47.850;9.002;2023-04-09T13:00:12;96473.94;;;13.71
67966;BMP280;54749;47.850;9.002;2023-04-09T13:02:39;96466.59;;;13.58
67966;BMP280;54749;47.850;9.002;2023-04-09T13:05:07;96470.44;;;13.72
67966;BMP280;54749;47.850;9.002;2023-04-09T13:07:34;96454.91;;;13.97
67966;BMP280;54749;47.850;9.002;2023-04-09T13:10:02;96457.16;;;14.10
67966;BMP280;54749;47.850;9.002;2023-04-09T13:12:29;96450.56;;;13.88
67966;BMP280;54749;47.850;9.002;2023-04-09T13:14:56;96461.19;;;13.51
67966;BMP280;54749;47.850;9.002;2023-04-09T13:17:24;96463.78;;;13.71
67966;BMP280;54749;47.850;9.002;2023-04-09T13:19:52;96457.81;;;13.62
67966;BMP280;54749;47.850;9.002;2023-04-09T13:22:19;96459.66;;;13.90
67966;BMP280;54749;47.850;9.002;2023-04-09T13:24:46;96460.66;;;13.68
67966;BMP280;54749;47.850;9.002;2023-04-09T13:27:13;96458.28;;;13.56
67966;BMP280;54749;47.850;9.002;2023-04-09T13:29:41;96447.69;;;13.51
67966;BMP280;54749;47.850;9.002;2023-04-09T13:32:07;96457.25;;;13.17
67966;BMP280;54749;47.850;9.002;2023-04-09T13:34:37;96470.75;;;13.17
67966;BMP280;54749;47.850;9.002;2023-04-09T13:37:05;96460.72;;;13.05
67966;BMP280;54749;47.850;9.002;2023-04-09T13:39:32;96449.09;;;12.92
67966;BMP280;54749;47.850;9.002;2023-04-09T13:42:00;96450.00;;;13.13
67966;BMP280;54749;47.850;9.002;2023-04-09T13:44:35;96435.22;;;13.48
67966;BMP280;54749;47.850;9.002;2023-04-09T13:47:02;96433.69;;;13.56
67966;BMP280;54749;47.850;9.002;2023-04-09T13:49:29;96431.69;;;13.40
67966;BMP280;54749;47.850;9.002;2023-04-09T13:51:57;96432.03;;;13.46
67966;BMP280;54749;47.850;9.002;2023-04-09T13:54:25;96433.69;;;13.56
67966;BMP280;54749;47.850;9.002;2023-04-09T13:56:52;96421.69;;;13.58
67966;BMP280;54749;47.850;9.002;2023-04-09T13:59:20;96424.97;;;13.69
67966;BMP280;54749;47.850;9.002;2023-04-09T14:01:47;96412.72;;;13.85
67966;BMP280;54749;47.850;9.002;2023-04-09T14:04:14;96423.09;;;13.82
67966;BMP280;54749;47.850;9.002;2023-04-09T14:06:42;96420.34;;;13.74
67966;BMP280;54749;47.850;9.002;2023-04-09T14:09:10;96412.81;;;13.53
67966;BMP280;54749;47.850;9.002;2023-04-09T14:11:37;96429.31;;;13.17
67966;BMP280;54749;47.850;9.002;2023-04-09T14:14:04;96420.75;;;12.87
67966;BMP280;54749;47.850;9.002;2023-04-09T14:16:32;96421.19;;;12.81
67966;BMP280;54749;47.850;9.002;2023-04-09T14:18:59;96429.25;;;12.97
67966;BMP280;54749;47.850;9.002;2023-04-09T14:21:27;96420.84;;;13.07
67966;BMP280;54749;47.850;9.002;2023-04-09T14:23:55;96408.09;;;13.18
67966;BMP280;54749;47.850;9.002;2023-04-09T14:26:22;96411.63;;;13.37
67966;BMP280;54749;47.850;9.002;2023-04-09T14:28:50;96424.53;;;13.45
67966;BMP280;54749;47.850;9.002;2023-04-09T14:31:18;96403.66;;;13.41
67966;BMP280;54749;47.850;9.002;2023-04-09T14:33:47;96397.09;;;13.59